Time;durP1;ratioP1;P1;durP2;ratioP2;P2;SDS_P1;SDS_P2;PMS_P1;PMS_P2;Temp;Humidity;BMP_temperature;BMP_pressure;BME280_temperature;BME280_humidity;BME280_pressure;Samples;Min_cycle;Max_cycle;Signal;HPM_P1;HPM_P2
2023/12/13 00:01:25;;;;;;;2.47;1.30;;;;;;;12.71;64.83;96061.06;5037092;28;20187;-70
2023/12/13 00:03:51;;;;;;;1.40;1.27;;;;;;;12.75;64.64;96059.66;5037794;28;20433;-70
2023/12/13 00:06:16;;;;;;;2.03;1.00;;;;;;;12.77;65.11;96064.72;5027424;28;20202;-70
2023/12/13 00:08:42;;;;;;;2.70;1.23;;;;;;;12.71;64.79;96070.75;5030741;28;20346;-72
2023/12/13 00:11:07;;;;;;;2.10;1.30;;;;;;;12.60;65.17;96067.66;5035186;28;20742;-70
2023/12/13 00:13:33;;;;;;;3.67;1.47;;;;;;;12.60;65.33;96061.59;5032046;28;20188;-69
2023/12/13 00:16:02;;;;;;;1.87;1.43;;;;;;;12.65;64.87;96067.06;5024168;28;20206;-70
2023/12/13 00:18:28;;;;;;;5.83;1.20;;;;;;;12.67;65.03;96059.00;5024153;28;20618;-70
2023/12/13 00:20:53;;;;;;;3.43;1.83;;;;;;;12.74;65.14;96055.41;5018279;28;20425;-69
2023/12/13 00:23:18;;;;;;;11.63;2.63;;;;;;;12.74;65.23;96055.41;5025390;28;20636;-70
2023/12/13 00:25:44;;;;;;;5.40;1.83;;;;;;;12.78;64.96;96061.09;5022923;28;20215;-70
2023/12/13 00:28:09;;;;;;;3.20;2.13;;;;;;;12.80;64.73;96053.81;5021339;28;20263;-71
2023/12/13 00:30:35;;;;;;;2.80;1.97;;;;;;;12.66;64.85;96034.53;5022315;28;20216;-71
2023/12/13 00:33:00;;;;;;;1.40;1.30;;;;;;;12.69;64.82;96036.78;5029096;28;20183;-70
2023/12/13 00:35:26;;;;;;;1.60;1.00;;;;;;;12.71;64.48;96032.16;5019919;28;20189;-69
2023/12/13 00:37:51;;;;;;;1.73;0.90;;;;;;;12.56;63.96;96029.63;5032555;28;20213;-69
2023/12/13 00:40:18;;;;;;;2.50;0.90;;;;;;;12.58;63.93;96026.81;5034686;28;20305;-72
2023/12/13 00:42:44;;;;;;;3.67;0.90;;;;;;;12.55;62.69;96032.47;5034555;28;20208;-71
2023/12/13 00:45:10;;;;;;;4.03;1.10;;;;;;;12.51;62.59;96032.03;5031048;28;20426;-70
2023/12/13 00:47:35;;;;;;;6.27;0.93;;;;;;;12.43;62.77;96034.78;5030470;28;20817;-70
2023/12/13 00:50:01;;;;;;;2.27;0.87;;;;;;;12.40;62.82;96033.38;5032677;28;20234;-70
2023/12/13 00:52:26;;;;;;;1.77;1.10;;;;;;;12.29;62.84;96037.34;5033753;28;20223;-71
2023/12/13 00:54:52;;;;;;;1.83;0.80;;;;;;;12.36;62.74;96024.25;5023109;28;20191;-69
2023/12/13 00:57:17;;;;;;;1.10;0.70;;;;;;;12.37;62.71;96031.13;5039158;28;20265;-68
2023/12/13 00:59:43;;;;;;;2.60;1.00;;;;;;;12.31;62.09;96047.66;5030630;28;20250;-69
2023/12/13 01:02:08;;;;;;;1.10;0.90;;;;;;;12.18;62.36;96047.56;5032064;28;20228;-71
2023/12/13 01:04:36;;;;;;;1.87;0.90;;;;;;;12.22;62.32;96043.56;5023723;28;20841;-69
2023/12/13 01:07:02;;;;;;;1.20;0.80;;;;;;;12.25;62.30;96048.41;5029698;28;20187;-70
2023/12/13 01:09:27;;;;;;;1.33;0.60;;;;;;;12.19;62.09;96051.81;5038549;28;21041;-69
2023/12/13 01:11:52;;;;;;;1.93;0.90;;;;;;;12.21;62.52;96048.00;5028019;28;20190;-70
2023/12/13 01:14:18;;;;;;;1.00;0.70;;;;;;;12.22;62.11;96049.63;5025423;28;20271;-70
2023/12/13 01:16:44;;;;;;;1.13;0.80;;;;;;;12.13;62.41;96043.69;5028597;28;20183;-70
2023/12/13 01:19:11;;;;;;;3.67;0.90;;;;;;;12.14;62.06;96042.69;5037766;28;20306;-70
2023/12/13 01:21:36;;;;;;;3.90;1.03;;;;;;;12.03;62.81;96045.03;5038361;28;21202;-71
2023/12/13 01:24:02;;;;;;;1.90;0.90;;;;;;;12.04;62.69;96041.38;5044446;28;20205;-70
2023/12/13 01:26:28;;;;;;;3.50;1.20;;;;;;;11.98;62.51;96049.03;5041897;28;20228;-70
2023/12/13 01:28:53;;;;;;;2.10;1.10;;;;;;;11.82;62.67;96044.00;5041413;28;20207;-70
2023/12/13 01:31:19;;;;;;;2.13;1.10;;;;;;;11.79;62.64;96042.56;5029757;28;20184;-70
2023/12/13 01:33:44;;;;;;;4.47;1.30;;;;;;;11.82;62.72;96036.97;5036270;28;20188;-70
2023/12/13 01:36:10;;;;;;;2.17;1.03;;;;;;;11.88;63.15;96029.31;5037295;28;20523;-70
2023/12/13 01:38:35;;;;;;;2.43;1.10;;;;;;;11.82;62.96;96029.09;5035928;28;20240;-69
2023/12/13 01:41:02;;;;;;;1.67;0.80;;;;;;;11.83;62.60;96035.97;5044347;28;20195;-70
2023/12/13 01:43:28;;;;;;;1.83;0.80;;;;;;;11.79;62.97;96042.56;5041744;28;20194;-70
2023/12/13 01:45:56;;;;;;;2.47;0.80;;;;;;;11.72;63.33;96040.88;5039421;28;20912;-69
2023/12/13 01:48:23;;;;;;;1.70;0.70;;;;;;;11.59;63.18;96036.34;5037505;28;20441;-69
2023/12/13 01:50:50;;;;;;;3.13;0.70;;;;;;;11.63;63.75;96040.19;5023753;28;20954;-70
2023/12/13 01:53:16;;;;;;;2.67;0.80;;;;;;;11.50;63.77;96043.53;5034526;28;20429;-71
2023/12/13 01:55:41;;;;;;;1.63;0.70;;;;;;;11.53;63.98;96041.31;5037483;28;20436;-70
2023/12/13 01:58:08;;;;;;;2.30;0.80;;;;;;;11.50;63.99;96039.06;5038143;28;20660;-69
2023/12/13 02:00:34;;;;;;;1.97;0.60;;;;;;;11.60;63.90;96040.56;5002133;28;20681;-69
2023/12/13 02:02:59;;;;;;;3.87;0.80;;;;;;;11.61;63.88;96036.94;5024308;28;20443;-70
2023/12/13 02:05:26;;;;;;;3.80;0.83;;;;;;;11.51;63.72;96029.41;5019226;28;20466;-70
2023/12/13 02:07:51;;;;;;;0.97;0.77;;;;;;;11.49;63.85;96024.31;5034774;28;23186;-70
2023/12/13 02:10:17;;;;;;;4.50;0.90;;;;;;;11.55;63.89;96021.97;5041565;28;21024;-69
2023/12/13 02:12:43;;;;;;;3.47;0.87;;;;;;;11.63;63.52;96017.41;5040635;28;20190;-69
2023/12/13 02:15:08;;;;;;;3.37;0.90;;;;;;;11.59;63.52;96023.22;5040534;28;20645;-69
2023/12/13 02:17:34;;;;;;;1.10;0.60;;;;;;;11.70;63.05;96019.28;5044838;28;20908;-69
2023/12/13 02:19:59;;;;;;;2.07;0.90;;;;;;;11.69;63.03;96013.22;5039602;28;20306;-69
2023/12/13 02:22:25;;;;;;;1.50;0.90;;;;;;;11.72;62.79;96012.03;5040118;28;20211;-71
2023/12/13 02:24:51;;;;;;;2.00;0.70;;;;;;;11.68;63.25;96008.97;5043176;28;20201;-70
2023/12/13 02:27:17;;;;;;;3.17;1.20;;;;;;;11.74;62.92;96010.81;5037226;28;20524;-69
2023/12/13 02:29:42;;;;;;;1.80;0.90;;;;;;;11.77;62.85;96002.59;5043603;28;20467;-70
2023/12/13 02:32:08;;;;;;;3.20;0.93;;;;;;;11.75;62.72;95996.69;5040879;28;20271;-69
2023/12/13 02:34:33;;;;;;;5.50;0.90;;;;;;;11.65;62.81;95988.34;5043896;28;20315;-70
2023/12/13 02:36:59;;;;;;;3.53;0.80;;;;;;;11.65;62.60;95990.97;5041152;28;20225;-71
2023/12/13 02:39:24;;;;;;;1.53;0.80;;;;;;;11.72;62.49;95986.56;5037494;28;20301;-69
2023/12/13 02:41:49;;;;;;;2.53;0.80;;;;;;;11.61;62.19;95989.72;5043832;28;20291;-69
2023/12/13 02:44:15;;;;;;;4.00;1.00;;;;;;;11.58;62.60;95993.53;5030782;28;20219;-70
2023/12/13 02:46:41;;;;;;;3.40;0.70;;;;;;;11.69;62.63;95984.34;5036090;28;20199;-70
2023/12/13 02:49:06;;;;;;;1.37;0.80;;;;;;;11.73;62.36;95987.41;5033555;28;20241;-69
2023/12/13 02:51:32;;;;;;;3.30;0.90;;;;;;;11.68;62.16;95986.16;5037136;28;20278;-68
2023/12/13 02:53:57;;;;;;;2.80;0.80;;;;;;;11.68;62.12;95985.34;5032631;28;20274;-70
2023/12/13 02:56:23;;;;;;;2.67;0.67;;;;;;;11.65;62.15;95981.31;5025209;28;20192;-70
2023/12/13 02:58:48;;;;;;;1.00;0.77;;;;;;;11.68;62.27;95980.09;5028638;28;20223;-69
2023/12/13 03:01:13;;;;;;;1.47;0.77;;;;;;;11.69;62.51;95968.59;5045082;28;20707;-70
2023/12/13 03:03:39;;;;;;;6.10;0.90;;;;;;;11.62;62.32;95980.84;5041350;28;20911;-70
2023/12/13 03:06:05;;;;;;;4.70;1.00;;;;;;;11.66;62.69;95985.53;5029266;28;20217;-70
2023/12/13 03:08:30;;;;;;;6.70;0.80;;;;;;;11.67;62.21;95983.72;5046238;28;20233;-69
2023/12/13 03:10:56;;;;;;;2.80;1.00;;;;;;;11.57;62.33;95975.38;5044303;28;20215;-69
2023/12/13 03:13:21;;;;;;;1.00;0.70;;;;;;;11.57;62.48;95978.00;5028383;28;20208;-69
2023/12/13 03:15:46;;;;;;;4.53;1.13;;;;;;;11.62;62.27;95976.41;5029374;28;20196;-71
2023/12/13 03:18:12;;;;;;;7.23;1.07;;;;;;;11.70;62.50;95978.09;5026409;28;20299;-70
2023/12/13 03:20:37;;;;;;;1.70;0.93;;;;;;;11.61;62.42;95980.03;5036295;28;20257;-72
2023/12/13 03:23:07;;;;;;;2.50;0.80;;;;;;;11.62;62.49;95975.59;5031346;28;20238;-71
2023/12/13 03:25:33;;;;;;;1.53;0.80;;;;;;;11.60;62.79;95973.16;5048942;28;20221;-71
2023/12/13 03:27:58;;;;;;;4.37;1.17;;;;;;;11.65;62.31;95976.06;5045366;28;20423;-71
2023/12/13 03:30:23;;;;;;;2.30;0.97;;;;;;;11.59;62.29;95966.28;5048263;28;20298;-72
2023/12/13 03:32:49;;;;;;;2.57;1.10;;;;;;;11.61;62.36;95963.47;5050891;28;20264;-72
2023/12/13 03:35:14;;;;;;;1.93;0.90;;;;;;;11.67;62.25;95967.97;5038777;28;20207;-72
2023/12/13 03:37:40;;;;;;;6.70;1.70;;;;;;;11.56;62.64;95965.88;5042444;28;20285;-70
2023/12/13 03:40:06;;;;;;;3.70;1.23;;;;;;;11.53;62.85;95965.25;5034321;28;20233;-70
2023/12/13 03:42:31;;;;;;;1.27;0.87;;;;;;;11.58;62.84;95974.38;5030180;28;20263;-70
2023/12/13 03:44:57;;;;;;;2.03;0.90;;;;;;;11.58;63.10;95979.63;5032957;28;20528;-70
2023/12/13 03:47:22;;;;;;;1.60;0.90;;;;;;;11.45;62.81;95967.19;5019250;28;20176;-70
2023/12/13 03:49:47;;;;;;;4.60;1.27;;;;;;;11.37;63.03;95962.88;5023089;28;20237;-71
2023/12/13 03:52:13;;;;;;;4.73;1.00;;;;;;;11.32;63.42;95958.19;5022388;28;20265;-71
2023/12/13 03:54:38;;;;;;;5.83;0.90;;;;;;;11.37;63.40;95953.19;5026651;28;20188;-70
2023/12/13 03:57:04;;;;;;;1.60;0.87;;;;;;;11.41;63.13;95948.38;5030084;28;20226;-70
2023/12/13 03:59:29;;;;;;;6.53;2.93;;;;;;;11.41;63.40;95943.13;5017213;28;20207;-71
2023/12/13 04:01:55;;;;;;;57.17;22.27;;;;;;;11.38;63.17;95948.75;5028202;28;20223;-70
2023/12/13 04:04:20;;;;;;;7.80;3.37;;;;;;;11.33;62.74;95953.75;5032259;28;20729;-71
2023/12/13 04:06:45;;;;;;;2.03;1.20;;;;;;;11.21;63.29;95946.38;5029562;28;20216;-71
2023/12/13 04:09:11;;;;;;;3.20;1.03;;;;;;;11.08;62.71;95948.88;5032746;28;20234;-71
2023/12/13 04:11:37;;;;;;;2.90;1.23;;;;;;;11.03;63.22;95940.75;5024871;28;20185;-71
2023/12/13 04:14:02;;;;;;;2.23;0.90;;;;;;;11.08;63.54;95948.88;5026002;28;20191;-72
2023/12/13 04:16:27;;;;;;;2.73;1.30;;;;;;;11.05;63.17;95947.44;5028709;28;20226;-71
2023/12/13 04:18:53;;;;;;;3.47;1.20;;;;;;;11.02;63.60;95944.38;5034663;28;20585;-71
2023/12/13 04:21:18;;;;;;;2.00;1.13;;;;;;;11.06;63.27;95933.31;5029585;28;20215;-71
2023/12/13 04:23:44;;;;;;;4.57;1.30;;;;;;;11.01;63.50;95935.72;5042259;28;20183;-71
2023/12/13 04:26:09;;;;;;;1.83;1.10;;;;;;;11.04;63.85;95943.19;5026965;28;20237;-71
2023/12/13 04:28:35;;;;;;;2.13;1.20;;;;;;;11.13;63.63;95938.63;5026466;28;21025;-71
2023/12/13 04:31:00;;;;;;;3.20;1.10;;;;;;;11.22;63.41;95934.09;5031825;28;20244;-71
2023/12/13 04:33:26;;;;;;;3.37;2.43;;;;;;;11.27;63.55;95936.97;5030703;28;20254;-70
2023/12/13 04:35:56;;;;;;;2.70;1.93;;;;;;;11.27;63.13;95936.97;5038222;28;20221;-71
2023/12/13 04:38:21;;;;;;;2.07;1.40;;;;;;;11.22;63.12;95934.88;5028526;28;20455;-71
2023/12/13 04:40:46;;;;;;;6.03;1.10;;;;;;;11.23;63.04;95940.94;5037094;28;20441;-69
2023/12/13 04:43:12;;;;;;;2.23;0.90;;;;;;;11.27;62.85;95936.13;5034847;28;20286;-69
2023/12/13 04:45:37;;;;;;;3.67;1.07;;;;;;;11.35;62.98;95928.97;5029701;28;20200;-69
2023/12/13 04:48:03;;;;;;;2.43;0.97;;;;;;;11.44;62.70;95920.94;5042725;28;20604;-70
2023/12/13 04:50:29;;;;;;;2.03;0.90;;;;;;;11.48;62.77;95915.13;5022616;28;20623;-69
2023/12/13 04:52:54;;;;;;;1.80;0.80;;;;;;;11.51;62.68;95917.38;5019957;28;21019;-69
2023/12/13 04:55:19;;;;;;;2.73;1.93;;;;;;;11.53;62.75;95902.28;5007358;28;20626;-70
2023/12/13 04:57:45;;;;;;;2.70;2.03;;;;;;;11.55;62.75;95906.53;5018410;28;20631;-71
2023/12/13 05:00:11;;;;;;;3.10;2.10;;;;;;;11.53;62.80;95894.41;5037543;28;20296;-69
2023/12/13 05:02:39;;;;;;;1.23;1.00;;;;;;;11.58;62.50;95896.44;5015715;28;20192;-69
2023/12/13 05:05:05;;;;;;;2.13;0.83;;;;;;;11.60;62.53;95888.38;5033080;28;20441;-69
2023/12/13 05:07:32;;;;;;;1.83;0.90;;;;;;;11.62;62.76;95881.13;5028435;28;20927;-69
2023/12/13 05:09:58;;;;;;;2.30;0.90;;;;;;;11.60;62.53;95883.97;5014944;28;20208;-70
2023/12/13 05:12:23;;;;;;;3.20;0.90;;;;;;;11.59;62.15;95886.78;5031231;28;20519;-70
2023/12/13 05:14:49;;;;;;;1.83;0.90;;;;;;;11.58;62.64;95882.53;5017142;28;20349;-71
2023/12/13 05:17:14;;;;;;;2.47;0.83;;;;;;;11.62;62.73;95891.63;5031217;28;20198;-70
2023/12/13 05:19:39;;;;;;;2.53;1.13;;;;;;;11.62;62.30;95886.38;5020520;28;20204;-69
2023/12/13 05:22:05;;;;;;;1.40;0.90;;;;;;;11.63;62.62;95883.59;5021001;28;20183;-69
2023/12/13 05:24:30;;;;;;;2.13;0.77;;;;;;;11.62;62.68;95883.75;5024269;28;20191;-70
2023/12/13 05:26:56;;;;;;;4.80;0.80;;;;;;;11.64;62.08;95885.22;5016008;28;20267;-69
2023/12/13 05:29:22;;;;;;;1.33;1.00;;;;;;;11.61;62.31;95879.50;5028132;28;20916;-70
2023/12/13 05:31:47;;;;;;;1.20;0.90;;;;;;;11.53;62.77;95876.03;5023055;28;20645;-70
2023/12/13 05:34:12;;;;;;;3.23;1.77;;;;;;;11.54;62.66;95879.47;5030874;28;20457;-70
2023/12/13 05:36:38;;;;;;;3.63;2.17;;;;;;;11.50;62.73;95873.78;5038214;28;20267;-69
2023/12/13 05:39:04;;;;;;;3.70;2.20;;;;;;;11.58;63.00;95879.91;5032815;28;20223;-70
2023/12/13 05:41:30;;;;;;;1.80;1.70;;;;;;;11.59;62.81;95877.09;5022317;28;20187;-69
2023/12/13 05:43:55;;;;;;;1.30;1.20;;;;;;;11.59;62.67;95873.66;5027869;28;20191;-70
2023/12/13 05:46:21;;;;;;;4.90;1.20;;;;;;;11.52;62.98;95861.28;5021581;28;20487;-72
2023/12/13 05:48:47;;;;;;;1.67;1.13;;;;;;;11.54;62.81;95868.97;5028599;28;20218;-72
2023/12/13 05:51:12;;;;;;;1.20;1.00;;;;;;;11.52;63.15;95858.66;5026193;28;20206;-71
2023/12/13 05:53:38;;;;;;;4.70;1.10;;;;;;;11.55;63.23;95859.28;5025172;28;20309;-72
2023/12/13 05:56:04;;;;;;;4.83;1.20;;;;;;;11.58;63.12;95861.53;5023946;28;20220;-71
2023/12/13 05:58:30;;;;;;;7.03;1.67;;;;;;;11.60;62.79;95854.25;5023040;28;20218;-71
2023/12/13 06:00:56;;;;;;;4.13;1.70;;;;;;;11.63;63.05;95856.50;5039104;28;20529;-71
2023/12/13 06:03:22;;;;;;;1.97;1.20;;;;;;;11.63;62.97;95856.50;5026364;28;20672;-72
2023/12/13 06:05:47;;;;;;;4.53;2.17;;;;;;;11.66;63.11;95862.19;5033761;28;20441;-70
2023/12/13 06:08:13;;;;;;;3.90;1.60;;;;;;;11.63;62.84;95861.75;5030770;28;20270;-71
2023/12/13 06:10:38;;;;;;;1.40;1.10;;;;;;;11.65;62.77;95860.59;5039444;28;20290;-70
2023/12/13 06:13:04;;;;;;;2.03;1.13;;;;;;;11.64;63.06;95863.38;5045347;28;20204;-70
2023/12/13 06:15:29;;;;;;;2.47;1.33;;;;;;;11.63;63.03;95856.50;5041357;28;20269;-70
2023/12/13 06:17:54;;;;;;;2.60;1.30;;;;;;;11.62;63.10;95866.22;5036781;28;20207;-73
2023/12/13 06:20:21;;;;;;;3.73;1.80;;;;;;;11.67;63.09;95868.25;5034653;28;20215;-70
2023/12/13 06:22:46;;;;;;;3.57;2.67;;;;;;;11.64;63.00;95872.09;5030760;28;20206;-72
2023/12/13 06:25:12;;;;;;;3.20;2.23;;;;;;;11.65;63.20;95859.75;5034970;28;20853;-70
2023/12/13 06:27:37;;;;;;;3.17;1.43;;;;;;;11.61;63.43;95858.50;5024693;28;20189;-69
2023/12/13 06:30:03;;;;;;;3.20;1.30;;;;;;;11.57;63.76;95859.91;5018767;28;20249;-70
2023/12/13 06:32:28;;;;;;;1.60;1.13;;;;;;;11.53;63.96;95865.53;5037989;28;20187;-70
2023/12/13 06:34:54;;;;;;;2.03;1.10;;;;;;;11.52;64.15;95871.00;5028371;28;20193;-70
2023/12/13 06:37:19;;;;;;;4.90;1.20;;;;;;;11.52;64.18;95866.53;5033122;28;20194;-73
2023/12/13 06:39:45;;;;;;;2.63;1.20;;;;;;;11.58;64.16;95864.16;5026665;28;20226;-71
2023/12/13 06:42:10;;;;;;;3.30;1.40;;;;;;;11.58;64.24;95858.91;5039402;28;20187;-70
2023/12/13 06:44:37;;;;;;;1.40;1.30;;;;;;;11.59;64.14;95855.28;5028688;28;20234;-70
2023/12/13 06:47:03;;;;;;;2.60;1.30;;;;;;;11.60;64.00;95857.72;5038220;28;20193;-69
2023/12/13 06:49:30;;;;;;;2.53;1.50;;;;;;;11.64;64.15;95847.66;5028998;28;20455;-70
2023/12/13 06:51:56;;;;;;;5.20;1.53;;;;;;;11.68;64.01;95851.50;5024507;28;20432;-70
2023/12/13 06:54:22;;;;;;;3.57;1.10;;;;;;;11.68;63.95;95849.69;5022926;28;21179;-73
2023/12/13 06:56:48;;;;;;;2.03;1.20;;;;;;;11.65;64.25;95847.47;5010762;28;20586;-71
2023/12/13 06:59:13;;;;;;;1.93;1.40;;;;;;;11.70;63.96;95841.63;5022974;28;20215;-70
2023/12/13 07:01:44;;;;;;;4.43;1.13;;;;;;;11.68;64.20;95846.25;5016026;28;20677;-71
2023/12/13 07:04:15;;;;;;;3.00;1.03;;;;;;;11.72;64.04;95847.47;5020243;28;20192;-70
2023/12/13 07:06:41;;;;;;;2.23;1.17;;;;;;;11.77;64.03;95852.19;5027745;28;21135;-70
2023/12/13 07:09:08;;;;;;;3.53;1.17;;;;;;;11.78;63.85;95854.59;5033203;28;20204;-71
2023/12/13 07:11:33;;;;;;;2.90;1.33;;;;;;;11.77;63.70;95852.97;5025730;28;20203;-72
2023/12/13 07:13:59;;;;;;;6.30;1.23;;;;;;;11.73;64.28;95846.47;5038768;28;20425;-71
2023/12/13 07:16:26;;;;;;;3.60;1.60;;;;;;;11.78;64.15;95846.72;5024225;28;20287;-71
2023/12/13 07:18:51;;;;;;;1.73;1.23;;;;;;;11.80;63.86;95847.34;5030242;28;20841;-74
2023/12/13 07:21:17;;;;;;;2.03;1.50;;;;;;;11.78;64.07;95846.72;5032580;28;20446;-70
2023/12/13 07:23:42;;;;;;;3.83;1.77;;;;;;;11.76;64.33;95845.31;5040285;28;20289;-71
2023/12/13 07:26:07;;;;;;;2.43;1.60;;;;;;;11.77;64.30;95849.56;5032829;28;20195;-73
2023/12/13 07:28:33;;;;;;;3.27;1.60;;;;;;;11.64;64.29;95843.22;5029486;28;20682;-70
2023/12/13 07:31:04;;;;;;;1.50;1.10;;;;;;;11.71;64.31;95837.19;5042103;28;20225;-71
2023/12/13 07:33:31;;;;;;;7.13;1.87;;;;;;;11.76;64.09;95835.59;5028299;28;20307;-71
2023/12/13 07:35:56;;;;;;;2.03;1.30;;;;;;;11.81;63.61;95833.22;5036780;28;20495;-71
2023/12/13 07:38:22;;;;;;;1.93;1.73;;;;;;;11.85;63.87;95823.13;5029950;28;20561;-71
2023/12/13 07:40:48;;;;;;;3.93;1.53;;;;;;;11.88;63.77;95827.19;5026389;28;20254;-72
2023/12/13 07:43:14;;;;;;;2.00;1.57;;;;;;;11.86;63.44;95826.56;5024254;28;20200;-72
2023/12/13 07:45:39;;;;;;;4.07;1.60;;;;;;;11.85;63.68;95838.88;5017134;28;20489;-71
2023/12/13 07:48:05;;;;;;;3.27;1.17;;;;;;;11.87;63.41;95833.44;5032064;28;20245;-72
2023/12/13 07:50:31;;;;;;;4.27;1.40;;;;;;;11.89;63.54;95840.13;5032270;28;20250;-71
2023/12/13 07:52:57;;;;;;;4.60;1.30;;;;;;;11.87;63.57;95836.88;5028860;28;20194;-69
2023/12/13 07:55:23;;;;;;;7.03;1.73;;;;;;;11.87;63.87;95838.69;5032787;28;20430;-71
2023/12/13 07:57:49;;;;;;;3.30;1.30;;;;;;;11.81;63.83;95833.22;5021206;28;20246;-69
2023/12/13 08:00:15;;;;;;;6.20;2.07;;;;;;;11.83;63.80;95841.72;5025097;28;20458;-70
2023/12/13 08:02:41;;;;;;;2.90;1.47;;;;;;;11.86;64.02;95839.69;5024126;28;20442;-70
2023/12/13 08:05:06;;;;;;;2.53;1.30;;;;;;;11.89;64.12;95831.44;5016088;28;20909;-71
2023/12/13 08:07:32;;;;;;;2.90;1.30;;;;;;;11.92;64.06;95837.09;5033682;28;20217;-71
2023/12/13 08:09:59;;;;;;;1.50;1.07;;;;;;;11.91;63.72;95840.72;5023556;28;20623;-70
2023/12/13 08:12:25;;;;;;;1.80;1.30;;;;;;;11.93;63.70;95841.34;5030788;28;20188;-71
2023/12/13 08:14:51;;;;;;;2.60;1.10;;;;;;;11.98;63.76;95848.66;5021194;28;20435;-70
2023/12/13 08:17:17;;;;;;;3.23;1.30;;;;;;;11.98;64.09;95848.66;5043296;28;20459;-72
2023/12/13 08:19:43;;;;;;;1.23;1.00;;;;;;;12.01;63.80;95842.25;5025083;28;20242;-69
2023/12/13 08:22:08;;;;;;;1.20;1.10;;;;;;;12.03;64.01;95841.03;5028896;28;20429;-70
2023/12/13 08:24:34;;;;;;;3.97;1.40;;;;;;;12.02;63.83;95841.25;5017638;28;20318;-72
2023/12/13 08:26:59;;;;;;;2.80;1.50;;;;;;;12.01;63.66;95837.78;5027776;28;20271;-70
2023/12/13 08:29:25;;;;;;;2.67;1.23;;;;;;;11.95;64.18;95836.72;5030673;28;20250;-71
2023/12/13 08:31:50;;;;;;;4.17;1.60;;;;;;;11.97;64.42;95839.16;5021664;28;20215;-72
2023/12/13 08:34:15;;;;;;;2.30;1.63;;;;;;;11.96;64.34;95843.59;5037625;28;20218;-72
2023/12/13 08:36:42;;;;;;;4.93;1.57;;;;;;;12.02;64.85;95841.25;5034373;28;20186;-72
2023/12/13 08:39:09;;;;;;;4.40;1.50;;;;;;;12.04;64.44;95836.56;5029544;28;20212;-73
2023/12/13 08:41:35;;;;;;;3.00;1.30;;;;;;;12.08;64.33;95836.00;5026468;28;20437;-69
2023/12/13 08:44:00;;;;;;;4.33;1.37;;;;;;;12.08;64.50;95829.94;5031470;28;20419;-70
2023/12/13 08:46:25;;;;;;;3.13;1.27;;;;;;;12.11;63.85;95832.19;5025280;28;20604;-71
2023/12/13 08:48:51;;;;;;;5.30;1.20;;;;;;;12.13;64.34;95828.34;5014651;28;20334;-71
2023/12/13 08:51:17;;;;;;;2.90;1.30;;;;;;;12.19;64.22;95836.47;5028343;28;20632;-70
2023/12/13 08:53:42;;;;;;;5.50;1.60;;;;;;;12.19;64.25;95828.59;5020334;28;20720;-71
2023/12/13 08:56:09;;;;;;;2.53;1.57;;;;;;;12.28;63.90;95830.03;5029843;28;20623;-68
2023/12/13 08:58:35;;;;;;;2.77;1.30;;;;;;;12.23;63.73;95814.84;5020846;28;20200;-70
2023/12/13 09:01:01;;;;;;;2.23;1.20;;;;;;;12.31;63.70;95818.31;5014665;28;20475;-71
2023/12/13 09:03:27;;;;;;;2.80;1.20;;;;;;;12.31;63.54;95816.50;5015625;28;20837;-72
2023/12/13 09:05:53;;;;;;;2.90;1.40;;;;;;;12.28;63.84;95816.88;5013194;28;20608;-71
2023/12/13 09:08:18;;;;;;;3.20;1.40;;;;;;;12.31;63.89;95821.75;5018552;28;20988;-71
2023/12/13 09:10:44;;;;;;;2.70;1.83;;;;;;;12.38;63.99;95817.31;5019979;28;20445;-69
2023/12/13 09:13:09;;;;;;;4.00;1.40;;;;;;;12.39;63.76;95818.94;5015105;28;20671;-69
2023/12/13 09:15:35;;;;;;;6.40;1.87;;;;;;;12.37;64.16;95820.94;5015031;28;20627;-71
2023/12/13 09:18:00;;;;;;;2.73;1.63;;;;;;;12.40;64.32;95831.06;5017826;28;20228;-71
2023/12/13 09:20:26;;;;;;;4.33;1.80;;;;;;;12.46;64.03;95828.69;5021398;28;20215;-71
2023/12/13 09:22:51;;;;;;;3.90;1.33;;;;;;;12.42;63.67;95834.31;5018115;28;20204;-70
2023/12/13 09:25:17;;;;;;;1.90;1.50;;;;;;;12.46;63.77;95841.81;5018649;28;20181;-71
2023/12/13 09:27:43;;;;;;;3.57;1.67;;;;;;;12.44;64.07;95831.47;5022599;28;20648;-71
2023/12/13 09:30:09;;;;;;;4.63;1.90;;;;;;;12.42;64.06;95834.31;5017628;28;20223;-69
2023/12/13 09:32:35;;;;;;;6.50;2.00;;;;;;;12.44;63.83;95831.47;5000845;28;20426;-70
2023/12/13 09:35:00;;;;;;;5.60;1.90;;;;;;;12.46;64.07;95833.94;5033168;28;20750;-69
2023/12/13 09:37:26;;;;;;;2.93;1.90;;;;;;;12.49;64.25;95839.59;5035437;28;20188;-73
2023/12/13 09:39:52;;;;;;;4.03;1.70;;;;;;;12.57;64.32;95846.50;5028889;28;20297;-72
2023/12/13 09:42:17;;;;;;;2.70;1.50;;;;;;;12.60;64.13;95839.00;5026238;28;20234;-71
2023/12/13 09:44:44;;;;;;;3.33;1.63;;;;;;;12.66;63.61;95840.03;5023077;28;20194;-70
2023/12/13 09:47:10;;;;;;;2.83;1.80;;;;;;;12.68;63.62;95835.41;5021428;28;20579;-71
2023/12/13 09:49:36;;;;;;;3.20;1.33;;;;;;;12.70;63.59;95833.38;5035810;28;20524;-71
2023/12/13 09:52:06;;;;;;;3.50;1.70;;;;;;;12.74;63.71;95842.47;5028299;28;20428;-72
2023/12/13 09:54:32;;;;;;;4.03;1.90;;;;;;;12.77;63.64;95841.28;5016034;28;20426;-69
2023/12/13 09:56:57;;;;;;;6.00;2.20;;;;;;;12.74;63.41;95847.72;5023622;28;20430;-75
2023/12/13 09:59:26;;;;;;;3.70;1.90;;;;;;;12.80;63.24;95846.13;5031163;28;20299;-72
2023/12/13 10:01:51;;;;;;;5.60;1.70;;;;;;;12.82;63.05;95854.63;5022381;28;20185;-68
2023/12/13 10:04:17;;;;;;;5.93;2.27;;;;;;;12.76;63.43;95858.06;5025330;28;20455;-71
2023/12/13 10:06:42;;;;;;;4.80;2.40;;;;;;;12.72;63.26;95851.56;5022930;28;20192;-71
2023/12/13 10:09:08;;;;;;;3.63;1.63;;;;;;;12.71;63.44;95848.16;5008058;28;20206;-72
2023/12/13 10:11:34;;;;;;;3.97;1.83;;;;;;;12.66;63.50;95834.78;5020438;28;20592;-71
2023/12/13 10:13:59;;;;;;;2.57;1.40;;;;;;;12.66;63.21;95837.41;5009553;28;20188;-73
2023/12/13 10:16:28;;;;;;;3.30;1.97;;;;;;;12.59;63.78;95849.75;5018109;28;20216;-72
2023/12/13 10:18:53;;;;;;;3.00;1.67;;;;;;;12.51;63.95;95847.28;5013567;28;20200;-71
2023/12/13 10:21:19;;;;;;;2.93;1.83;;;;;;;12.62;63.97;95838.00;5023072;28;20512;-71
2023/12/13 10:23:44;;;;;;;5.60;2.10;;;;;;;12.66;63.96;95829.53;5019841;28;20188;-71
2023/12/13 10:26:10;;;;;;;2.00;1.50;;;;;;;12.58;63.58;95842.88;5025782;28;20197;-71
2023/12/13 10:28:36;;;;;;;3.40;1.90;;;;;;;12.68;63.33;95845.09;5023627;28;20204;-71
2023/12/13 10:31:03;;;;;;;4.50;1.40;;;;;;;12.51;64.00;95834.97;5012429;28;20212;-70
2023/12/13 10:33:29;;;;;;;3.70;1.83;;;;;;;12.64;63.86;95821.03;5028218;28;20423;-69
2023/12/13 10:35:54;;;;;;;5.30;1.70;;;;;;;12.80;63.70;95813.78;5030056;28;21063;-71
2023/12/13 10:38:23;;;;;;;2.93;1.70;;;;;;;13.01;63.92;95813.59;5021427;28;20227;-72
2023/12/13 10:40:49;;;;;;;3.83;1.60;;;;;;;13.24;62.92;95814.22;5027844;28;20211;-72
2023/12/13 10:43:15;;;;;;;4.60;1.80;;;;;;;13.61;62.12;95811.97;5018577;28;20547;-71
2023/12/13 10:45:45;;;;;;;7.13;1.97;;;;;;;13.93;61.42;95818.19;5025298;28;20428;-71
2023/12/13 10:48:14;;;;;;;3.57;1.80;;;;;;;14.75;60.23;95819.44;5016208;28;20438;-71
2023/12/13 10:50:39;;;;;;;2.00;1.60;;;;;;;15.61;59.06;95806.59;5027720;28;20532;-71
2023/12/13 10:53:07;;;;;;;5.33;2.53;;;;;;;16.33;56.26;95810.50;5024597;28;20457;-70
2023/12/13 10:55:32;;;;;;;4.03;3.03;;;;;;;17.04;53.45;95812.59;5026674;28;20836;-69
2023/12/13 10:57:58;;;;;;;7.00;2.70;;;;;;;17.54;51.32;95811.38;5024826;28;20466;-72
2023/12/13 11:00:26;;;;;;;4.30;2.10;;;;;;;18.09;49.34;95814.69;5026412;28;20310;-72
2023/12/13 11:02:59;;;;;;;4.33;2.00;;;;;;;18.47;48.94;95812.50;5013263;28;20568;-73
2023/12/13 11:05:24;;;;;;;3.50;1.50;;;;;;;18.71;47.17;95818.50;5031979;28;20451;-71
2023/12/13 11:07:51;;;;;;;3.00;1.90;;;;;;;18.91;47.09;95817.25;5019611;28;20472;-70
2023/12/13 11:10:17;;;;;;;2.70;1.70;;;;;;;19.25;45.38;95815.47;5028980;28;20216;-73
2023/12/13 11:12:49;;;;;;;2.43;1.30;;;;;;;19.51;43.96;95821.16;5021883;28;20522;-73
2023/12/13 11:15:15;;;;;;;2.60;0.90;;;;;;;19.41;43.36;95827.13;5032054;28;20251;-72
2023/12/13 11:17:44;;;;;;;2.00;1.27;;;;;;;19.36;43.05;95807.66;5027810;28;20453;-72
2023/12/13 11:20:10;;;;;;;2.80;1.00;;;;;;;19.51;44.03;95810.53;5025683;28;20455;-71
2023/12/13 11:22:35;;;;;;;1.97;1.40;;;;;;;19.77;43.60;95806.41;5026074;28;20442;-71
2023/12/13 11:25:06;;;;;;;2.63;1.80;;;;;;;19.74;43.58;95798.09;5030966;28;20188;-71
2023/12/13 11:27:32;;;;;;;1.70;1.10;;;;;;;19.52;42.41;95804.19;5026225;28;20197;-71